Time;durP1;ratioP1;P1;durP2;ratioP2;P2;SDS_P1;SDS_P2;PMS_P1;PMS_P2;Temp;Humidity;BMP_temperature;BMP_pressure;BME280_temperature;BME280_humidity;BME280_pressure;Samples;Min_cycle;Max_cycle;Signal;HPM_P1;HPM_P2
2023/04/29 00:00:54;;;;;;;38.50;30.02;;;;;;;11.51;100.00;101382.44;5294466;28;20596;-69
2023/04/29 00:03:27;;;;;;;42.33;29.48;;;;;;;11.45;100.00;101380.31;5294667;28;20023;-69
2023/04/29 00:06:00;;;;;;;41.33;29.33;;;;;;;11.44;100.00;101387.38;5302884;28;20024;-68
2023/04/29 00:08:31;;;;;;;41.85;31.58;;;;;;;11.42;100.00;101384.03;5299599;28;20047;-69
2023/04/29 00:11:03;;;;;;;40.80;29.88;;;;;;;11.39;100.00;101381.63;5295749;28;20032;-68
2023/04/29 00:13:34;;;;;;;40.10;29.55;;;;;;;11.41;100.00;101387.59;5302227;28;20028;-68
2023/04/29 00:16:06;;;;;;;39.30;30.45;;;;;;;11.40;100.00;101385.09;5300646;28;20052;-69
2023/04/29 00:18:37;;;;;;;38.58;30.75;;;;;;;11.38;100.00;101384.41;5302159;28;20101;-69
2023/04/29 00:21:09;;;;;;;37.28;29.77;;;;;;;11.36;100.00;101392.38;5299261;28;20023;-68
2023/04/29 00:23:40;;;;;;;36.33;28.67;;;;;;;11.33;100.00;101384.75;5298392;28;20110;-67
2023/04/29 00:26:11;;;;;;;35.72;28.08;;;;;;;11.28;100.00;101388.69;5298543;28;20290;-68
2023/04/29 00:28:42;;;;;;;34.00;26.95;;;;;;;11.31;100.00;101391.06;5295422;28;20036;-68
2023/04/29 00:31:14;;;;;;;34.50;27.70;;;;;;;11.31;100.00;101393.69;5300071;28;20122;-67
2023/04/29 00:33:45;;;;;;;32.15;26.45;;;;;;;11.31;100.00;101391.91;5296937;28;20322;-68
2023/04/29 00:36:17;;;;;;;34.70;28.08;;;;;;;11.24;100.00;101401.22;5300967;28;20028;-68
2023/04/29 00:38:48;;;;;;;30.10;25.88;;;;;;;11.17;100.00;101407.88;5299595;28;20030;-68
2023/04/29 00:41:20;;;;;;;28.80;24.55;;;;;;;11.22;100.00;101400.50;5298222;28;20028;-68
2023/04/29 00:43:51;;;;;;;26.45;23.65;;;;;;;11.21;100.00;101411.94;5284184;28;20267;-67
2023/04/29 00:46:22;;;;;;;27.40;24.48;;;;;;;11.19;100.00;101408.63;5294587;28;20028;-68
2023/04/29 00:48:54;;;;;;;26.33;23.63;;;;;;;11.12;100.00;101410.88;5305482;28;20469;-68
2023/04/29 00:51:26;;;;;;;26.55;23.65;;;;;;;11.07;100.00;101414.81;5304348;28;20488;-68
2023/04/29 00:53:57;;;;;;;25.17;22.60;;;;;;;11.01;100.00;101403.00;5295912;28;20036;-68
2023/04/29 00:56:32;;;;;;;23.80;21.27;;;;;;;11.05;100.00;101411.47;5303523;28;20528;-68
2023/04/29 00:59:04;;;;;;;24.48;22.02;;;;;;;10.95;100.00;101409.56;5293482;28;20032;-68
2023/04/29 01:01:36;;;;;;;23.15;20.75;;;;;;;10.94;100.00;101413.13;5301512;28;20038;-68
2023/04/29 01:04:08;;;;;;;23.55;20.83;;;;;;;10.99;100.00;101415.41;5299675;28;20020;-68
2023/04/29 01:07:03;;;;;;;24.30;21.70;;;;;;;11.17;100.00;101419.25;5283289;28;20063;-68
2023/04/29 01:09:42;;;;;;;24.48;21.85;;;;;;;11.03;100.00;101421.25;5297698;28;20024;-68
2023/04/29 01:12:33;;;;;;;24.08;21.58;;;;;;;11.08;100.00;101426.97;5303554;28;20020;-67
2023/04/29 01:15:11;;;;;;;23.85;21.38;;;;;;;10.86;100.00;101422.56;5301569;28;20035;-68
2023/04/29 01:18:23;;;;;;;25.73;22.10;;;;;;;11.11;100.00;101432.00;5283115;28;20042;-67
2023/04/29 01:20:56;;;;;;;26.70;22.52;;;;;;;10.78;100.00;101430.16;5248467;28;20044;-68
2023/04/29 01:23:28;;;;;;;24.17;21.63;;;;;;;10.73;100.00;101434.94;5297969;28;20024;-68
2023/04/29 01:26:00;;;;;;;24.25;21.58;;;;;;;10.70;100.00;101430.75;5304402;28;20036;-67
2023/04/29 01:28:43;;;;;;;26.88;23.88;;;;;;;10.87;100.00;101440.81;5274754;28;20035;-68
2023/04/29 01:31:23;;;;;;;;;;;;;;;11.31;100.00;101440.91;5294906;28;20830;-68
2023/04/29 01:34:56;;;;;;;29.85;24.80;;;;;;;11.10;100.00;101435.53;5283262;28;19983;-67
2023/04/29 01:37:37;;;;;;;28.13;24.13;;;;;;;10.92;100.00;101438.66;5229668;28;20946;-68
2023/04/29 01:40:16;;;;;;;29.02;24.02;;;;;;;10.90;100.00;101440.53;5223222;28;20311;-68
2023/04/29 01:42:54;;;;;;;29.95;24.20;;;;;;;10.92;100.00;101450.94;5258808;28;20032;-68
2023/04/29 01:45:26;;;;;;;31.02;25.17;;;;;;;10.81;100.00;101443.88;5297466;28;20378;-68
2023/04/29 01:47:58;;;;;;;28.17;25.10;;;;;;;10.77;100.00;101441.59;5279507;28;20028;-68
2023/04/29 01:50:29;;;;;;;28.63;25.52;;;;;;;10.82;100.00;101450.78;5301753;28;20505;-68
2023/04/29 01:53:00;;;;;;;30.27;25.75;;;;;;;10.82;100.00;101442.91;5301314;28;20481;-68
2023/04/29 01:55:32;;;;;;;31.73;27.08;;;;;;;10.85;100.00;101450.56;5304145;28;20055;-68
2023/04/29 01:58:03;;;;;;;32.33;27.05;;;;;;;10.85;100.00;101444.47;5294679;28;20020;-68
2023/04/29 02:00:35;;;;;;;33.65;27.63;;;;;;;10.85;100.00;101453.16;5294260;28;20028;-67
2023/04/29 02:03:06;;;;;;;31.63;26.27;;;;;;;10.91;100.00;101457.09;5300417;28;20309;-68
2023/04/29 02:05:38;;;;;;;33.22;27.05;;;;;;;10.87;100.00;101453.91;5300151;28;20378;-68
2023/04/29 02:08:09;;;;;;;34.25;28.27;;;;;;;10.87;100.00;101453.91;5300371;28;20046;-69
2023/04/29 02:10:40;;;;;;;37.58;28.67;;;;;;;10.81;100.00;101454.38;5302042;28;20442;-68
2023/04/29 02:13:12;;;;;;;35.72;27.67;;;;;;;10.82;100.00;101457.81;5301287;28;20508;-68
2023/04/29 02:15:43;;;;;;;37.63;28.80;;;;;;;10.90;100.00;101458.06;5290276;28;20080;-68
2023/04/29 02:18:15;;;;;;;33.40;27.80;;;;;;;10.88;100.00;101463.44;5301994;28;20031;-68
2023/04/29 02:20:46;;;;;;;37.88;29.48;;;;;;;10.84;100.00;101463.78;5299580;28;20040;-68
2023/04/29 02:23:17;;;;;;;39.35;28.50;;;;;;;10.92;100.00;101474.53;5279658;28;20042;-68
2023/04/29 02:25:49;;;;;;;35.63;28.98;;;;;;;10.90;100.00;101474.63;5294444;28;20070;-67
2023/04/29 02:28:22;;;;;;;38.95;29.42;;;;;;;10.93;100.00;101478.81;5293398;28;20024;-68
2023/04/29 02:30:54;;;;;;;;;;;;;;;11.55;100.00;101482.75;5293994;28;20595;-68
2023/04/29 02:33:25;;;;;;;;;;;;;;;11.54;100.00;101481.09;5288229;28;19927;-68
2023/04/29 02:35:56;;;;;;;;;;;;;;;11.56;100.00;101485.28;5302658;28;19927;-68
2023/04/29 02:38:27;;;;;;;;;;;;;;;11.62;100.00;101484.75;5296578;28;19916;-67
2023/04/29 02:40:58;;;;;;;;;;;;;;;11.63;100.00;101496.09;5302262;28;19911;-68
2023/04/29 02:43:30;;;;;;;;;;;;;;;11.63;100.00;101501.34;5293583;28;19955;-68
2023/04/29 02:46:01;;;;;;;;;;;;;;;11.61;100.00;101504.09;5301952;28;19954;-67
2023/04/29 02:48:32;;;;;;;;;;;;;;;11.61;100.00;101503.28;5296259;28;20755;-68
2023/04/29 02:51:03;;;;;;;;;;;;;;;11.64;100.00;101511.75;5294034;28;20103;-69
2023/04/29 02:53:34;;;;;;;;;;;;;;;11.58;100.00;101517.47;5301087;28;19993;-69
2023/04/29 02:56:06;;;;;;;;;;;;;;;11.56;100.00;101511.50;5293808;28;19935;-68
2023/04/29 02:58:37;;;;;;;;;;;;;;;11.52;100.00;101517.13;5294947;28;20263;-68
2023/04/29 03:01:08;;;;;;;;;;;;;;;11.50;100.00;101517.22;5286919;28;20441;-67
2023/04/29 03:03:40;;;;;;;;;;;;;;;11.51;100.00;101524.13;5292529;28;20052;-69
2023/04/29 03:06:11;;;;;;;;;;;;;;;11.52;100.00;101517.13;5300603;28;19912;-68
2023/04/29 03:08:42;;;;;;;;;;;;;;;11.53;100.00;101517.00;5294671;28;19916;-69
2023/04/29 03:11:13;;;;;;;;;;;;;;;11.54;100.00;101518.66;5304436;28;20508;-69
2023/04/29 03:13:45;;;;;;;;;;;;;;;11.51;100.00;101523.31;5294866;28;19920;-68
2023/04/29 03:16:16;;;;;;;;;;;;;;;11.48;100.00;101524.41;5297674;28;19927;-68
2023/04/29 03:18:47;;;;;;;;;;;;;;;11.47;100.00;101520.09;5304807;28;19919;-68
2023/04/29 03:21:18;;;;;;;;;;;;;;;11.45;100.00;101528.09;5276171;28;19911;-67
2023/04/29 03:23:50;;;;;;;;;;;;;;;11.44;100.00;101530.84;5293644;28;19968;-68
2023/04/29 03:26:23;;;;;;;;;;;;;;;11.45;100.00;101527.25;5294844;28;19918;-68
2023/04/29 03:28:54;;;;;;;;;;;;;;;11.44;100.00;101529.06;5292708;28;19999;-68
2023/04/29 03:31:26;;;;;;;;;;;;;;;11.43;100.00;101531.78;5293813;28;19918;-68
2023/04/29 03:33:57;;;;;;;;;;;;;;;11.47;100.00;101538.44;5300899;28;20160;-68
2023/04/29 03:36:28;;;;;;;;;;;;;;;11.50;100.00;101538.22;5299959;28;19954;-68
2023/04/29 03:38:59;;;;;;;;;;;;;;;11.50;100.00;101540.84;5296827;28;19998;-68
2023/04/29 03:41:30;;;;;;;;;;;;;;;11.50;100.00;101546.09;5295683;28;20022;-68
2023/04/29 03:44:02;;;;;;;;;;;;;;;11.48;100.00;101540.16;5302312;28;19927;-68
2023/04/29 03:46:33;;;;;;;;;;;;;;;11.51;100.00;101539.06;5299045;28;19947;-68
2023/04/29 03:49:04;;;;;;;;;;;;;;;11.51;100.00;101541.69;5301380;28;20024;-68
2023/04/29 03:51:35;;;;;;;;;;;;;;;11.49;100.00;101546.22;5300976;28;20207;-67
2023/04/29 03:54:08;;;;;;;;;;;;;;;11.51;100.00;101552.19;5288039;28;19919;-68
2023/04/29 03:56:40;;;;;;;;;;;;;;;11.48;100.00;101545.41;5299835;28;19916;-68
2023/04/29 03:59:11;;;;;;;;;;;;;;;11.49;100.00;101544.44;5298751;28;20430;-68
2023/04/29 04:01:42;;;;;;;;;;;;;;;11.53;100.00;101543.25;5294686;28;20014;-68
2023/04/29 04:04:14;;;;;;;;;;;;;;;11.57;100.00;101555.16;5297845;28;20126;-68
2023/04/29 04:06:50;;;;;;;;;;;;;;;11.55;100.00;101553.59;5294495;28;19916;-68
2023/04/29 04:09:21;;;;;;;;;;;;;;;11.53;100.00;101552.91;5298203;28;19922;-68
2023/04/29 04:11:52;;;;;;;;;;;;;;;11.50;100.00;101564.47;5299437;28;19920;-68
2023/04/29 04:14:23;;;;;;;;;;;;;;;11.50;100.00;101555.75;5294396;28;20454;-68
2023/04/29 04:16:55;;;;;;;;;;;;;;;11.44;100.00;101563.16;5299899;28;19926;-68
2023/04/29 04:19:27;;;;;;;;;;;;;;;11.45;100.00;101567.44;5297974;28;19915;-68
2023/04/29 04:21:59;;;;;;;;;;;;;;;11.45;100.00;101556.94;5296483;28;19969;-67
2023/04/29 04:24:30;;;;;;;;;;;;;;;11.52;100.00;101565.19;5294326;28;20319;-68
2023/04/29 04:27:01;;;;;;;;;;;;;;;11.53;100.00;101569.47;5300774;28;20304;-68
2023/04/29 04:29:32;;;;;;;;;;;;;;;11.51;100.00;101573.16;5297241;28;20388;-69
2023/04/29 04:32:04;;;;;;;;;;;;;;;11.55;100.00;101574.59;5296681;28;20284;-68
2023/04/29 04:34:35;;;;;;;;;;;;;;;11.51;100.00;101571.38;5297790;28;19969;-69
2023/04/29 04:37:07;;;;;;;;;;;;;;;11.51;100.00;101583.66;5299671;28;19942;-67
2023/04/29 04:39:38;;;;;;;;;;;;;;;11.43;100.00;101577.22;5300068;28;20368;-68
2023/04/29 04:42:09;;;;;;;;;;;;;;;11.53;100.00;101587.03;5297137;28;20006;-68
2023/04/29 04:44:40;;;;;;;;;;;;;;;11.53;100.00;101598.34;5296006;28;19998;-68
2023/04/29 04:47:11;;;;;;;;;;;;;;;11.55;100.00;101593.81;5290632;28;19920;-68
2023/04/29 04:49:43;;;;;;;;;;;;;;;11.56;100.00;101605.16;5293513;28;20269;-68
2023/04/29 04:52:14;;;;;;;;;;;;;;;11.53;100.00;101616.72;5299346;28;20007;-67
2023/04/29 04:54:45;;;;;;;;;;;;;;;11.53;100.00;101613.25;5279917;28;20010;-68
2023/04/29 04:57:17;;;;;;;;;;;;;;;11.54;100.00;101618.38;5300017;28;20050;-67
2023/04/29 04:59:48;;;;;;;;;;;;;;;11.57;100.00;101620.78;5302834;28;19937;-68
2023/04/29 05:02:19;;;;;;;;;;;;;;;11.55;100.00;101627.09;5294197;28;19912;-68
2023/04/29 05:04:50;;;;;;;;;;;;;;;11.56;100.00;101628.78;5304759;28;19973;-67
2023/04/29 05:07:21;;;;;;;;;;;;;;;11.61;100.00;101637.13;5302619;28;19926;-68
2023/04/29 05:09:52;;;;;;;;;;;;;;;11.64;100.00;101634.28;5297447;28;20315;-69
2023/04/29 05:12:29;;;;;;;;;;;;;;;11.66;100.00;101637.59;5304542;28;19919;-70
2023/04/29 05:15:00;;;;;;;;;;;;;;;11.69;100.00;101642.63;5301008;28;20353;-70
2023/04/29 05:17:33;;;;;;;;;;;;;;;11.69;100.00;101645.25;5294339;28;19916;-70
2023/04/29 05:20:05;;;;;;;;;;;;;;;11.73;100.00;101633.56;5304146;28;19961;-69
2023/04/29 05:22:37;;;;;;;;;;;;;;;11.73;100.00;101638.81;5299681;28;20307;-69
2023/04/29 05:25:08;;;;;;;;;;;;;;;11.74;100.00;101647.50;5297827;28;19961;-69
2023/04/29 05:27:40;;;;;;;;;;;;;;;11.78;100.00;101641.94;5295926;28;19916;-69
2023/04/29 05:30:11;;;;;;;;;;;;;;;11.77;100.00;101655.97;5302040;28;19938;-69
2023/04/29 05:32:44;;;;;;;;;;;;;;;11.74;100.00;101655.38;5298913;28;20325;-69
2023/04/29 05:35:15;;;;;;;;;;;;;;;11.75;100.00;101657.91;5280655;28;20042;-69
2023/04/29 05:37:46;;;;;;;;;;;;;;;11.67;100.00;101655.88;5306217;28;20141;-70
2023/04/29 05:40:17;;;;;;;;;;;;;;;11.68;100.00;101656.69;5296634;28;20147;-70
2023/04/29 05:42:49;;;;;;;;;;;;;;;11.67;100.00;101662.91;5305722;28;19916;-70
2023/04/29 05:45:20;;;;;;;;;;;;;;;11.69;100.00;101674.13;5297617;28;19931;-69
2023/04/29 05:47:51;;;;;;;;;;;;;;;11.69;100.00;101669.69;5298690;28;20014;-69
2023/04/29 05:50:22;;;;;;;;;;;;;;;11.71;100.00;101666.97;5302878;28;19919;-69
2023/04/29 05:52:55;;;;;;;;;;;;;;;11.69;100.00;101668.88;5298571;28;19926;-70
2023/04/29 05:55:26;;;;;;;;;;;;;;;11.71;100.00;101676.66;5300995;28;20301;-69
2023/04/29 05:57:57;;;;;;;;;;;;;;;11.73;100.00;101685.22;5298337;28;19923;-69
2023/04/29 06:00:28;;;;;;;;;;;;;;;11.71;100.00;101693.22;5293657;28;19915;-70
2023/04/29 06:03:00;;;;;;;;;;;;;;;11.76;100.00;101688.44;5289629;28;19974;-69
2023/04/29 06:05:31;;;;;;;;;;;;;;;11.76;100.00;101693.69;5293749;28;19922;-70
2023/04/29 06:08:03;;;;;;;;;;;;;;;11.78;100.00;101698.81;5283723;28;20010;-69
2023/04/29 06:10:35;;;;;;;;;;;;;;;11.76;100.00;101698.94;5297221;28;19919;-70
2023/04/29 06:13:07;;;;;;;;;;;;;;;11.78;100.00;101704.94;5302617;28;19922;-69
2023/04/29 06:15:38;;;;;;;;;;;;;;;11.80;100.00;101708.25;5281627;28;19985;-70
2023/04/29 06:18:09;;;;;;;;;;;;;;;11.79;100.00;101703.13;5284887;28;19915;-69
2023/04/29 06:20:40;;;;;;;;;;;;;;;11.78;100.00;101707.56;5297683;28;19994;-69
2023/04/29 06:23:11;;;;;;;;;;;;;;;11.78;100.00;101702.31;5283051;28;19915;-70
2023/04/29 06:25:43;;;;;;;;;;;;;;;11.78;100.00;101714.56;5299870;28;19924;-70
2023/04/29 06:28:14;;;;;;;;;;;;;;;11.82;100.00;101721.25;5298033;28;19919;-70
2023/04/29 06:30:45;;;;;;;;;;;;;;;11.82;100.00;101716.88;5297995;28;19919;-72
2023/04/29 06:33:17;;;;;;;;;;;;;;;11.84;100.00;101722.03;5301970;28;20392;-70
2023/04/29 06:35:48;;;;;;;;;;;;;;;11.86;100.00;101726.22;5284027;28;19912;-70
2023/04/29 06:38:19;;;;;;;;;;;;;;;11.86;100.00;101730.63;5276320;28;19922;-70
2023/04/29 06:40:50;;;;;;;;;;;;;;;11.70;100.00;101730.91;5298829;28;20388;-69
2023/04/29 06:43:21;;;;;;;;;;;;;;;11.74;100.00;101742.00;5298596;28;19912;-70
2023/04/29 06:45:52;;;;;;;;;;;;;;;11.76;100.00;101735.69;5292314;28;20330;-69
2023/04/29 06:48:24;;;;;;;;;;;;;;;11.79;100.00;101738.09;5293929;28;19938;-70
2023/04/29 06:50:56;;;;;;;;;;;;;;;11.82;100.00;101751.00;5299375;28;20006;-70
2023/04/29 06:53:27;;;;;;;;;;;;;;;11.86;100.00;101749.84;5278804;28;20435;-69
2023/04/29 06:55:58;;;;;;;;;;;;;;;11.84;100.00;101754.38;5297805;28;19995;-70
2023/04/29 06:58:30;;;;;;;;;;;;;;;11.87;100.00;101755.94;5291027;28;19916;-70
2023/04/29 07:01:02;;;;;;;;;;;;;;;11.96;100.00;101764.88;5288200;28;19923;-71
2023/04/29 07:03:34;;;;;;;;;;;;;;;12.01;100.00;101768.84;5298478;28;19919;-69
2023/04/29 07:06:05;;;;;;;;;;;;;;;12.03;100.00;101764.31;5291616;28;19980;-69
2023/04/29 07:08:36;;;;;;;;;;;;;;;12.01;100.00;101770.63;5291785;28;19911;-70
2023/04/29 07:11:07;;;;;;;;;;;;;;;12.06;100.00;101773.75;5296206;28;19923;-69
2023/04/29 07:13:39;;;;;;;;;;;;;;;12.03;100.00;101779.22;5294436;28;19957;-69
2023/04/29 07:16:17;;;;;;;;;;;;;;;12.05;100.00;101782.59;5294127;28;19926;-69
2023/04/29 07:18:48;;;;;;;;;;;;;;;12.09;100.00;101786.66;5297771;28;20408;-69
2023/04/29 07:21:19;;;;;;;;;;;;;;;12.09;100.00;101777.00;5297002;28;19988;-69
2023/04/29 07:23:50;;;;;;;;;;;;;;;12.09;100.00;101784.88;5296510;28;19916;-69
2023/04/29 07:26:22;;;;;;;;;;;;;;;12.08;100.00;101787.59;5301774;28;20532;-69
2023/04/29 07:28:53;;;;;;;;;;;;;;;12.09;100.00;101789.28;5298145;28;19927;-69
2023/04/29 07:31:24;;;;;;;;;;;;;;;12.11;100.00;101793.44;5292883;28;20011;-69
2023/04/29 07:33:56;;;;;;;;;;;;;;;12.12;100.00;101799.53;5300403;28;19923;-69
2023/04/29 07:36:28;;;;;;;;;;;;;;;12.15;100.00;101802.78;5296864;28;19934;-69
2023/04/29 07:38:59;;;;;;;;;;;;;;;12.19;100.00;101803.38;5297920;28;20377;-69
2023/04/29 07:41:30;;;;;;;;;;;;;;;12.19;100.00;101811.25;5297039;28;19920;-70
2023/04/29 07:44:02;;;;;;;;;;;;;;;12.21;100.00;101812.00;5298505;28;19922;-69
2023/04/29 07:46:33;;;;;;;;;;;;;;;12.27;100.00;101808.88;5294684;28;19927;-70
2023/04/29 07:49:05;;;;;;;;;;;;;;;12.31;100.00;101812.09;5280995;28;19915;-70
2023/04/29 07:51:39;;;;;;;;;;;;;;;12.29;100.00;101806.97;5291581;28;19916;-70
2023/04/29 07:54:10;;;;;;;;;;;;;;;12.35;100.00;101817.03;5295353;28;19920;-69
2023/04/29 07:56:42;;;;;;;;;;;;;;;12.47;100.00;101817.03;5293411;28;19923;-69
2023/04/29 07:59:13;;;;;;;;;;;;;;;12.54;100.00;101812.97;5290136;28;19920;-69
2023/04/29 08:01:44;;;;;;;;;;;;;;;12.63;100.00;101825.41;5295119;28;20384;-70
2023/04/29 08:04:15;;;;;;;;;;;;;;;12.78;100.00;101823.38;5292889;28;19998;-69
2023/04/29 08:06:47;;;;;;;;;;;;;;;12.89;100.00;101818.94;5289914;28;19916;-70
2023/04/29 08:09:19;;;;;;;;;;;;;;;12.97;100.00;101822.75;5292966;28;19919;-70
2023/04/29 08:11:50;;;;;;;;;;;;;;;12.95;100.00;101824.66;5299665;28;19916;-70
2023/04/29 08:14:21;;;;;;;;;;;;;;;12.95;100.00;101833.38;5297975;28;19931;-69
2023/04/29 08:16:54;;;;;;;;;;;;;;;13.00;100.00;101835.66;5294444;28;19920;-69
2023/04/29 08:19:25;;;;;;;;;;;;;;;13.10;100.00;101839.22;5293790;28;19947;-70
2023/04/29 08:21:57;;;;;;;;;;;;;;;13.16;100.00;101836.13;5294648;28;20495;-70
2023/04/29 08:24:28;;;;;;;;;;;;;;;13.24;100.00;101832.91;5304161;28;19916;-69
2023/04/29 08:27:00;;;;;;;;;;;;;;;13.30;100.00;101843.78;5282362;28;20432;-69
2023/04/29 08:29:31;;;;;;;;;;;;;;;13.35;100.00;101841.59;5302664;28;19919;-70
2023/04/29 08:32:03;;;;;;;;;;;;;;;13.44;100.00;101833.91;5299734;28;19916;-69
2023/04/29 08:34:35;;;;;;;;;;;;;;;13.51;100.00;101843.00;5297462;28;19920;-70
2023/04/29 08:37:06;;;;;;;;;;;;;;;13.56;100.00;101844.31;5301196;28;19916;-69
2023/04/29 08:39:37;;;;;;;;;;;;;;;13.64;100.00;101846.31;5298518;28;20417;-70
2023/04/29 08:42:09;;;;;;;;;;;;;;;13.66;100.00;101847.00;5294802;28;20298;-70
2023/04/29 08:44:41;;;;;;;;;;;;;;;13.84;100.00;101849.94;5299793;28;19919;-70
2023/04/29 08:47:13;;;;;;;;;;;;;;;13.99;100.00;101858.38;5297292;28;19923;-69
2023/04/29 08:49:44;;;;;;;;;;;;;;;14.10;100.00;101847.78;5303356;28;20273;-70
2023/04/29 08:52:15;;;;;;;;;;;;;;;14.23;100.00;101856.28;5302291;28;20214;-69
2023/04/29 08:54:47;;;;;;;;;;;;;;;14.34;100.00;101856.22;5294949;28;19919;-70
2023/04/29 08:57:19;;;;;;;;;;;;;;;14.50;100.00;101850.50;5298864;28;19912;-70
2023/04/29 08:59:51;;;;;;;;;;;;;;;14.74;100.00;101854.69;5297739;28;19922;-70
2023/04/29 09:02:23;;;;;;;;;;;;;;;14.86;100.00;101850.13;5299995;28;19919;-70
2023/04/29 09:05:13;;;;;;;;;;;;;;;14.88;100.00;101853.47;5298884;28;19927;-70
2023/04/29 09:07:45;;;;;;;;;;;;;;;14.92;100.00;101857.50;5296549;28;20585;-70
2023/04/29 09:10:17;;;;;;;;;;;;;;;14.95;100.00;101857.25;5294965;28;19926;-70
2023/04/29 09:12:48;;;;;;;;;;;;;;;15.08;100.00;101860.50;5297650;28;19916;-71
2023/04/29 09:15:19;;;;;;;;;;;;;;;15.26;100.00;101869.41;5300496;28;19919;-71
2023/04/29 09:17:50;;;;;;;;;;;;;;;15.43;100.00;101857.34;5297496;28;19915;-71
2023/04/29 09:20:21;;;;;;;;;;;;;;;15.69;100.00;101862.97;5295203;28;20583;-71
2023/04/29 09:22:54;;;;;;;;;;;;;;;15.76;100.00;101865.91;5305711;28;19965;-71
2023/04/29 09:25:26;;;;;;;;;;;;;;;15.85;100.00;101869.50;5302612;28;20270;-70
2023/04/29 09:27:57;;;;;;;;;;;;;;;15.93;100.00;101865.19;5297516;28;19919;-71
2023/04/29 09:30:28;;;;;;;;;;;;;;;16.14;100.00;101865.03;5301345;28;19926;-71
2023/04/29 09:33:04;;;;;;;;;;;;;;;16.21;100.00;101867.94;5306155;28;19920;-70
2023/04/29 09:35:35;;;;;;;;;;;;;;;16.19;100.00;101865.44;5274169;28;19919;-71
2023/04/29 09:38:08;;;;;;;;;;;;;;;16.18;100.00;101870.88;5298203;28;19922;-71
2023/04/29 09:40:40;;;;;;;;;;;;;;;16.11;100.00;101865.31;5297448;28;19941;-71
2023/04/29 09:43:13;;;;;;;;;;;;;;;16.15;100.00;101872.00;5296004;28;19915;-71
2023/04/29 09:45:46;;;;;;;;;;;;;;;16.16;100.00;101868.34;5297324;28;20002;-71
2023/04/29 09:48:17;;;;;;;;;;;;;;;16.13;100.00;101871.28;5300322;28;19915;-71
2023/04/29 09:50:58;;;;;;;;;;;;;;;16.10;100.00;101890.09;5298333;28;19923;-71
2023/04/29 09:53:30;;;;;;;;;;;;;;;16.10;100.00;101878.66;5305778;28;19927;-71
2023/04/29 09:56:01;;;;;;;;;;;;;;;16.15;100.00;101882.56;5296516;28;19932;-71
2023/04/29 09:58:37;;;;;;;;;;;;;;;16.20;100.00;101885.59;5300339;28;20833;-71
2023/04/29 10:01:09;;;;;;;;;;;;;;;16.25;100.00;101890.47;5296698;28;19916;-70
2023/04/29 10:03:41;;;;;;;;;;;;;;;16.33;100.00;101889.75;5289857;28;19916;-71
2023/04/29 10:06:13;;;;;;;;;;;;;;;16.49;100.00;101895.31;5302290;28;20422;-71
2023/04/29 10:08:45;;;;;;;;;;;;;;;16.71;100.00;101900.25;5296486;28;19916;-71
2023/04/29 10:11:16;;;;;;;;;;;;;;;16.83;100.00;101893.00;5291730;28;19916;-71
2023/04/29 10:13:49;;;;;;;;;;;;;;;16.83;100.00;101908.88;5307178;28;19908;-71
2023/04/29 10:16:20;;;;;;;;;;;;;;;16.85;100.00;101906.91;5274984;28;19927;-70
2023/04/29 10:18:52;;;;;;;;;;;;;;;16.80;100.00;101903.03;5296643;28;20329;-70
2023/04/29 10:21:31;;;;;;;;;;;;;;;16.70;100.00;101903.88;5296969;28;19969;-71
2023/04/29 10:24:02;;;;;;;;;;;;;;;16.59;100.00;101904.03;5294938;28;19923;-71
2023/04/29 10:26:36;;;;;;;;;;;;;;;16.58;100.00;101907.66;5293510;28;19915;-70
2023/04/29 10:29:09;;;;;;;;;;;;;;;16.60;100.00;101905.72;5291747;28;20373;-71
2023/04/29 10:31:42;;;;;;;;;;;;;;;16.60;100.00;101910.19;5293209;28;19916;-71
2023/04/29 10:34:15;;;;;;;;;;;;;;;16.61;100.00;101914.50;5293411;28;19927;-72
2023/04/29 10:36:47;;;;;;;;;;;;;;;16.63;100.00;101915.16;5297775;28;19999;-71
2023/04/29 10:39:23;;;;;;;;;;;;;;;16.68;100.00;101908.47;5293840;28;19920;-71
2023/04/29 10:41:55;;;;;;;;;;;;;;;16.76;100.00;101908.63;5295350;28;19916;-71
2023/04/29 10:44:26;;;;;;;;;;;;;;;16.92;100.00;101904.53;5299233;28;19916;-71
2023/04/29 10:47:17;;;;;;;;;;;;;;;17.02;100.00;101903.50;5294451;28;19951;-72
2023/04/29 10:50:03;;;;;;;;;;;;;;;17.06;100.00;101904.03;5298922;28;20436;-72
2023/04/29 10:52:50;;;;;;;;;;;;;;;17.05;100.00;101907.69;5302538;28;19924;-71
2023/04/29 10:55:22;;;;;;;;;;;;;;;17.08;100.00;101912.66;5281992;28;19916;-71
2023/04/29 10:57:55;;;;;;;;;;;;;;;16.95;100.00;101914.81;5300168;28;19915;-71
2023/04/29 11:00:27;;;;;;;;;;;;;;;16.98;100.00;101914.53;5295625;28;20835;-71
2023/04/29 11:03:00;;;;;;;;;;;;;;;17.03;100.00;101915.75;5295873;28;19912;-71
2023/04/29 11:05:32;;;;;;;;;;;;;;;17.12;100.00;101919.38;5294581;28;19916;-70
2023/04/29 11:08:15;;;;;;;;;;;;;;;17.22;100.00;101914.00;5291390;28;19919;-70
2023/04/29 11:10:46;;;;;;;;;;;;;;;17.31;100.00;101921.03;5296971;28;19965;-71
2023/04/29 11:13:25;;;;;;;;;;;;;;;17.37;100.00;101927.59;5296944;28;19924;-71
2023/04/29 11:16:03;;;;;;;;;;;;;;;17.46;100.00;101927.53;5294290;28;19916;-70
2023/04/29 11:18:35;;;;;;;;;;;;;;;17.54;100.00;101925.94;5300691;28;19923;-71
2023/04/29 11:21:06;;;;;;;;;;;;;;;17.50;100.00;101922.75;5293417;28;19923;-70
2023/04/29 11:23:40;;;;;;;;;;;;;;;17.50;100.00;101923.59;5276942;28;19930;-71
2023/04/29 11:26:11;;;;;;;;;;;;;;;17.50;100.00;101922.75;5299351;28;19973;-71
2023/04/29 11:28:42;;;;;;;;;;;;;;;17.51;100.00;101932.38;5297601;28;20003;-71
2023/04/29 11:31:13;;;;;;;;;;;;;;;17.57;100.00;101929.13;5298668;28;20005;-71
2023/04/29 11:33:45;;;;;;;;;;;;;;;17.57;100.00;101925.63;5300938;28;19919;-71
2023/04/29 11:36:17;;;;;;;;;;;;;;;17.58;100.00;101924.66;5296845;28;19916;-71
2023/04/29 11:38:48;;;;;;;;;;;;;;;17.54;100.00;101934.75;5278124;28;20390;-71
2023/04/29 11:41:20;;;;;;;;;;;;;;;17.54;100.00;101929.44;5294534;28;19954;-71
2023/04/29 11:43:56;;;;;;;;;;;;;;;17.59;100.00;101931.63;5298347;28;20406;-71
2023/04/29 11:46:29;;;;;;;;;;;;;;;17.72;100.00;101924.13;5295835;28;19916;-70
2023/04/29 11:49:00;;;;;;;;;;;;;;;17.92;100.00;101925.72;5292260;28;19920;-71
2023/04/29 11:51:32;;;;;;;;;;;;;;;18.04;100.00;101930.78;5297548;28;19916;-70
2023/04/29 11:54:03;;;;;;;;;;;;;;;18.16;100.00;101930.38;5291819;28;19928;-71
2023/04/29 11:56:36;;;;;;;;;;;;;;;18.29;100.00;101924.66;5295398;28;19916;-70
2023/04/29 11:59:07;;;;;;;;;;;;;;;18.39;100.00;101925.41;5297139;28;19916;-71
2023/04/29 12:01:40;;;;;;;;;;;;;;;18.54;100.00;101933.66;5297468;28;20388;-71
2023/04/29 12:04:11;;;;;;;;;;;;;;;18.52;100.00;101925.00;5299116;28;19922;-71
2023/04/29 12:06:43;;;;;;;;;;;;;;;18.46;100.00;101930.94;5299981;28;19915;-71
2023/04/29 12:09:15;;;;;;;;;;;;;;;18.42;100.00;101929.59;5300932;28;20097;-71
2023/04/29 12:11:48;;;;;;;;;;;;;;;18.38;100.00;101928.25;5305870;28;20357;-71
2023/04/29 12:14:20;;;;;;;;;;;;;;;18.29;100.00;101922.03;5298017;28;19916;-71
2023/04/29 12:16:53;;;;;;;;;;;;;;;18.23;100.00;101920.84;5307857;28;19923;-71
2023/04/29 12:19:24;;;;;;;;;;;;;;;18.30;100.00;101928.19;5304914;28;19919;-70
2023/04/29 12:21:59;;;;;;;;;;;;;;;18.25;100.00;101920.66;5298657;28;19923;-71
2023/04/29 12:24:40;;;;;;;;;;;;;;;18.38;100.00;101928.25;5295394;28;19942;-71
2023/04/29 12:27:11;;;;;;;;;;;;;;;18.42;100.00;101924.28;5297444;28;19916;-71
2023/04/29 12:29:42;;;;;;;;;;;;;;;18.48;100.00;101926.31;5297394;28;19923;-71
2023/04/29 12:32:17;;;;;;;;;;;;;;;18.62;100.00;101924.91;5295104;28;20077;-71
2023/04/29 12:34:49;;;;;;;;;;;;;;;18.71;100.00;101924.84;5303530;28;20431;-71